Time;durP1;ratioP1;P1;durP2;ratioP2;P2;SDS_P1;SDS_P2;PMS_P1;PMS_P2;Temp;Humidity;BMP_temperature;BMP_pressure;BME280_temperature;BME280_humidity;BME280_pressure;Samples;Min_cycle;Max_cycle;Signal;HPM_P1;HPM_P2
2022/11/01 00:01:25;;;;;;;19.90;7.88;;;;;;;14.69;56.88;100554.75;5015494;28;20045;-69
2022/11/01 00:03:51;;;;;;;24.30;8.68;;;;;;;14.58;59.26;100560.44;5017486;28;20354;-69
2022/11/01 00:06:16;;;;;;;21.50;7.70;;;;;;;14.53;60.40;100558.22;5017368;28;20041;-69
2022/11/01 00:08:41;;;;;;;24.02;8.00;;;;;;;14.62;60.98;100551.09;5016830;28;20037;-69
2022/11/01 00:11:10;;;;;;;15.02;7.20;;;;;;;14.63;58.20;100537.59;5020274;28;20033;-69
2022/11/01 00:13:36;;;;;;;22.42;8.02;;;;;;;14.55;58.08;100558.91;5020821;28;20044;-69
2022/11/01 00:16:01;;;;;;;18.10;7.63;;;;;;;14.27;58.74;100558.38;5017338;28;20105;-69
2022/11/01 00:18:27;;;;;;;18.00;7.43;;;;;;;14.13;60.99;100555.53;5018316;28;20038;-69
2022/11/01 00:20:53;;;;;;;23.35;7.53;;;;;;;14.19;61.53;100557.53;5017485;28;20038;-69
2022/11/01 00:23:18;;;;;;;20.30;7.82;;;;;;;14.36;61.10;100551.22;5018654;28;20219;-69
2022/11/01 00:25:44;;;;;;;19.58;8.43;;;;;;;14.42;61.61;100555.03;5017051;28;20045;-69
2022/11/01 00:28:10;;;;;;;15.15;7.55;;;;;;;14.29;60.49;100556.38;5015784;28;20034;-69
2022/11/01 00:30:36;;;;;;;20.05;8.00;;;;;;;14.09;59.75;100520.41;4998248;28;20037;-69
2022/11/01 00:33:02;;;;;;;15.13;7.28;;;;;;;14.32;59.61;100555.22;5016445;28;20248;-69
2022/11/01 00:35:29;;;;;;;19.42;7.63;;;;;;;14.35;59.63;100550.38;5018384;28;20030;-69
2022/11/01 00:37:55;;;;;;;26.48;7.22;;;;;;;13.97;62.72;100543.03;5017599;28;20113;-69
2022/11/01 00:40:20;;;;;;;18.00;7.18;;;;;;;14.22;62.47;100555.38;5017466;28;20037;-69
2022/11/01 00:42:45;;;;;;;16.15;7.10;;;;;;;14.30;61.69;100551.88;5016805;28;20044;-69
2022/11/01 00:45:11;;;;;;;19.30;7.50;;;;;;;14.29;60.45;100555.53;5020922;28;20372;-69
2022/11/01 00:47:36;;;;;;;18.83;7.18;;;;;;;14.15;58.68;100550.88;5020675;28;20100;-69
2022/11/01 00:50:02;;;;;;;18.92;7.55;;;;;;;13.93;59.45;100533.72;5022150;28;20136;-69
2022/11/01 00:52:27;;;;;;;15.38;7.38;;;;;;;14.05;61.45;100545.72;5001916;28;20132;-69
2022/11/01 00:54:53;;;;;;;13.48;6.93;;;;;;;14.17;60.76;100543.56;5001877;28;20030;-69
2022/11/01 00:57:18;;;;;;;38.85;7.38;;;;;;;14.11;57.96;100552.22;5020924;28;20029;-69
2022/11/01 00:59:44;;;;;;;19.05;7.43;;;;;;;13.97;59.43;100551.03;5019685;28;20373;-69
2022/11/01 01:02:09;;;;;;;16.33;7.22;;;;;;;13.92;61.19;100550.69;5023757;28;20038;-69
2022/11/01 01:04:40;;;;;;;18.50;6.88;;;;;;;13.97;62.12;100554.53;5023668;28;20085;-69
2022/11/01 01:07:06;;;;;;;17.88;7.35;;;;;;;14.13;62.48;100550.22;5020936;28;20097;-69
2022/11/01 01:09:31;;;;;;;17.27;7.40;;;;;;;14.14;62.21;100550.03;5020682;28;20057;-69
2022/11/01 01:11:58;;;;;;;18.42;8.70;;;;;;;14.09;61.55;100540.88;5000490;28;20337;-69
2022/11/01 01:14:24;;;;;;;22.25;7.70;;;;;;;14.09;61.41;100548.88;5021046;28;20046;-69
2022/11/01 01:16:49;;;;;;;22.33;7.10;;;;;;;14.07;61.34;100549.03;5019512;28;20050;-69
2022/11/01 01:19:14;;;;;;;18.75;8.55;;;;;;;14.09;62.15;100546.22;5021828;28;20045;-69
2022/11/01 01:21:40;;;;;;;21.85;8.35;;;;;;;14.19;62.34;100541.56;5019770;28;20050;-69
2022/11/01 01:24:05;;;;;;;17.95;8.02;;;;;;;14.20;62.09;100552.03;5020200;28;20054;-69
2022/11/01 01:26:31;;;;;;;17.65;7.50;;;;;;;14.14;61.66;100549.22;5020578;28;20113;-69
2022/11/01 01:28:56;;;;;;;23.27;8.00;;;;;;;14.16;62.38;100548.03;5019394;28;20109;-69
2022/11/01 01:31:22;;;;;;;20.45;7.25;;;;;;;14.16;59.27;100555.22;5019850;28;20324;-69
2022/11/01 01:33:47;;;;;;;17.02;7.03;;;;;;;13.85;60.77;100545.19;5021674;28;20255;-69
2022/11/01 01:36:12;;;;;;;18.45;8.55;;;;;;;13.74;62.08;100542.84;5023144;28;20101;-69
2022/11/01 01:38:38;;;;;;;22.63;7.38;;;;;;;13.69;62.78;100538.00;5021169;28;20101;-69
2022/11/01 01:43:48;;;;;;;19.42;7.22;;;;;;;13.80;60.93;100544.84;5020884;28;20102;-69
2022/11/01 01:46:13;;;;;;;21.40;7.70;;;;;;;13.77;61.10;100539.84;5023038;28;20030;-69
2022/11/01 01:48:41;;;;;;;17.70;7.43;;;;;;;13.48;61.97;100500.31;5022252;28;20022;-69
2022/11/01 01:51:13;;;;;;;15.68;7.80;;;;;;;13.73;61.21;100546.50;5009320;28;20283;-69
2022/11/01 01:53:44;;;;;;;14.73;7.70;;;;;;;13.63;61.51;100543.97;5018524;28;20312;-69
2022/11/01 01:56:15;;;;;;;20.27;7.68;;;;;;;13.69;62.58;100556.63;5003772;28;20038;-69
2022/11/01 01:58:45;;;;;;;20.17;8.05;;;;;;;13.74;63.79;100546.31;5002586;28;20073;-69
2022/11/01 02:01:11;;;;;;;20.88;8.50;;;;;;;13.58;64.50;100559.59;5019483;28;20045;-69
2022/11/01 02:03:39;;;;;;;23.25;7.38;;;;;;;13.75;64.69;100555.16;5019850;28;20037;-69
2022/11/01 02:06:14;;;;;;;17.05;7.00;;;;;;;13.72;64.47;100552.81;5022916;28;20228;-69
2022/11/01 02:08:43;;;;;;;15.93;7.25;;;;;;;13.82;64.07;100558.81;5022612;28;20101;-69
2022/11/01 02:11:10;;;;;;;18.65;7.63;;;;;;;13.94;63.87;100557.50;5019728;28;20358;-69
2022/11/01 02:13:36;;;;;;;20.08;7.07;;;;;;;13.95;63.40;100561.00;5020856;28;20080;-69
2022/11/01 02:16:07;;;;;;;12.95;6.90;;;;;;;13.91;63.49;100563.16;5022111;28;20092;-69
2022/11/01 02:18:47;;;;;;;15.13;7.40;;;;;;;13.96;63.01;100568.00;5021123;28;20034;-69
2022/11/01 02:21:38;;;;;;;18.30;7.40;;;;;;;13.86;60.50;100565.47;5023442;28;20046;-69
2022/11/01 02:24:24;;;;;;;17.13;7.32;;;;;;;13.56;61.34;100566.06;5010244;28;20134;-69
2022/11/01 02:26:56;;;;;;;15.45;7.53;;;;;;;13.38;60.56;100566.97;5017861;28;20030;-69
2022/11/01 02:30:05;;;;;;;21.63;7.82;;;;;;;13.25;61.76;100571.91;5018876;28;20071;-69
2022/11/01 02:32:39;;;;;;;21.98;6.82;;;;;;;13.09;62.39;100569.13;4984683;28;20046;-69
2022/11/01 02:35:04;;;;;;;18.75;6.70;;;;;;;13.10;62.02;100571.63;5020562;28;20029;-69
2022/11/01 02:37:48;;;;;;;27.70;7.88;;;;;;;13.08;61.85;100570.13;5019018;28;20040;-69
2022/11/01 02:40:21;;;;;;;21.42;7.10;;;;;;;13.06;61.45;100575.59;5017985;28;20041;-69
2022/11/01 02:42:52;;;;;;;17.15;6.95;;;;;;;13.09;62.42;100577.09;5018438;28;20044;-69
2022/11/01 02:45:31;;;;;;;14.15;6.82;;;;;;;13.00;62.86;100560.28;5000158;28;20323;-69
2022/11/01 02:47:58;;;;;;;12.45;6.38;;;;;;;13.09;63.27;100575.28;5021400;28;20053;-69
2022/11/01 02:50:34;;;;;;;21.80;6.93;;;;;;;13.04;62.38;100585.56;5021763;28;20041;-69
2022/11/01 02:53:00;;;;;;;14.30;6.97;;;;;;;12.97;62.10;100583.69;5019097;28;20049;-69
2022/11/01 02:55:28;;;;;;;15.23;6.47;;;;;;;12.90;61.57;100579.97;4998664;28;20029;-69
2022/11/01 02:58:03;;;;;;;16.23;6.20;;;;;;;12.80;61.09;100580.09;5018087;28;20706;-69
2022/11/01 03:00:31;;;;;;;12.75;5.80;;;;;;;12.72;61.95;100594.16;5017838;28;20037;-69
2022/11/01 03:03:08;;;;;;;24.35;7.22;;;;;;;12.72;61.81;100588.00;5021423;28;20033;-69
2022/11/01 03:05:43;;;;;;;15.57;6.90;;;;;;;12.72;61.63;100594.16;5019757;28;20046;-69
2022/11/01 03:08:14;;;;;;;18.17;6.68;;;;;;;12.78;62.20;100587.38;5017199;28;20057;-69
2022/11/01 03:11:04;;;;;;;21.38;7.10;;;;;;;12.86;61.84;100591.91;5017957;28;20038;-69
2022/11/01 03:13:47;;;;;;;15.07;6.82;;;;;;;12.70;61.71;100590.81;5017763;28;20197;-68
2022/11/01 03:16:16;;;;;;;21.27;6.55;;;;;;;12.72;62.96;100588.84;4998565;28;20342;-69
2022/11/01 03:19:03;;;;;;;15.85;6.50;;;;;;;12.77;64.54;100583.88;5021480;28;20322;-69
2022/11/01 03:21:39;;;;;;;15.82;7.07;;;;;;;12.77;63.33;100580.41;5018054;28;20065;-69
2022/11/01 03:24:14;;;;;;;16.75;6.65;;;;;;;12.65;61.10;100581.63;5015745;28;20045;-69
2022/11/01 03:26:41;;;;;;;19.25;7.13;;;;;;;12.52;61.33;100586.53;5021380;28;20034;-69
2022/11/01 03:29:10;;;;;;;38.08;12.15;;;;;;;12.41;63.26;100590.22;5019548;28;20042;-69
2022/11/01 03:31:39;;;;;;;28.17;9.70;;;;;;;12.29;62.00;100594.09;5019897;28;20045;-69
2022/11/01 03:34:11;;;;;;;32.17;13.88;;;;;;;12.24;63.33;100591.06;5018080;28;20041;-69
2022/11/01 03:36:42;;;;;;;38.70;13.45;;;;;;;12.25;63.91;100598.88;4997561;28;20096;-69
2022/11/01 03:39:16;;;;;;;26.63;11.30;;;;;;;12.33;64.34;100600.78;5017469;28;20046;-69
2022/11/01 03:41:47;;;;;;;28.98;11.15;;;;;;;12.50;64.40;100605.28;5017893;28;20072;-69
2022/11/01 03:44:13;;;;;;;27.05;11.15;;;;;;;12.57;64.80;100602.84;5017710;28;20021;-69
2022/11/01 03:46:40;;;;;;;26.33;10.52;;;;;;;12.65;64.85;100600.25;5018472;28;20025;-68
2022/11/01 03:49:06;;;;;;;29.42;10.18;;;;;;;12.62;64.39;100592.56;5016711;28;20033;-69
2022/11/01 03:51:31;;;;;;;29.27;9.80;;;;;;;12.66;63.61;100607.22;5003796;28;20034;-69
2022/11/01 03:53:57;;;;;;;30.65;10.60;;;;;;;12.67;63.54;100601.75;5003367;28;20024;-69
2022/11/01 03:56:22;;;;;;;28.20;9.65;;;;;;;12.69;63.51;100602.44;5017659;28;20041;-69
2022/11/01 03:58:48;;;;;;;28.63;9.77;;;;;;;12.71;62.74;100596.97;5017368;28;20030;-69
2022/11/01 04:01:16;;;;;;;23.88;10.27;;;;;;;12.69;60.86;100601.59;5017926;28;20101;-69
2022/11/01 04:03:41;;;;;;;33.25;10.20;;;;;;;12.58;62.54;100592.06;5017181;28;20034;-69
2022/11/01 04:06:07;;;;;;;33.55;9.82;;;;;;;12.53;62.87;100597.00;5018351;28;20037;-69
2022/11/01 04:08:33;;;;;;;30.25;11.40;;;;;;;12.36;62.94;100588.03;5016765;28;20030;-69
2022/11/01 04:10:59;;;;;;;20.60;9.10;;;;;;;12.43;63.84;100599.72;5018209;28;20101;-69
2022/11/01 04:13:24;;;;;;;26.42;9.93;;;;;;;12.51;63.27;100600.78;5018137;28;20105;-69
2022/11/01 04:21:20;;;;;;;19.80;8.23;;;;;;;12.46;63.09;100604.72;5020493;28;20127;-69
2022/11/01 04:23:46;;;;;;;23.00;9.10;;;;;;;12.23;63.99;100602.69;5005014;28;20037;-69
2022/11/01 04:26:14;;;;;;;33.75;9.15;;;;;;;12.03;66.09;100601.97;5006766;28;20029;-69
2022/11/01 04:28:39;;;;;;;23.25;9.20;;;;;;;11.98;64.98;100606.91;5023564;28;20030;-69
2022/11/01 04:31:05;;;;;;;36.55;8.77;;;;;;;11.75;65.78;100570.16;5020507;28;20061;-69
2022/11/01 04:33:31;;;;;;;16.77;9.18;;;;;;;12.04;66.35;100606.31;5023017;28;20366;-69
2022/11/01 04:35:57;;;;;;;19.30;8.52;;;;;;;12.09;66.89;100604.03;5024120;28;20033;-69
2022/11/01 04:38:22;;;;;;;19.30;8.57;;;;;;;12.21;66.80;100597.50;5022155;28;20072;-69
2022/11/01 04:40:48;;;;;;;23.52;8.75;;;;;;;12.28;65.55;100603.06;5024879;28;20341;-69
2022/11/01 04:43:14;;;;;;;24.80;9.25;;;;;;;12.28;64.61;100608.38;5023165;28;20347;-69
2022/11/01 04:45:40;;;;;;;33.13;9.77;;;;;;;12.23;63.69;100594.72;5020875;28;20034;-69
2022/11/01 04:48:12;;;;;;;93.28;13.23;;;;;;;12.28;63.87;100611.84;5020677;28;20040;-69
2022/11/01 04:50:37;;;;;;;61.15;12.45;;;;;;;12.18;64.39;100603.13;5019258;28;20037;-69
2022/11/01 04:53:03;;;;;;;48.83;13.05;;;;;;;12.01;66.27;100618.06;5020502;28;20264;-69
2022/11/01 04:55:28;;;;;;;41.38;15.70;;;;;;;12.19;66.72;100610.09;5003266;28;20326;-69
2022/11/01 04:57:54;;;;;;;46.58;13.77;;;;;;;12.22;67.33;100612.47;5023844;28;20030;-69
2022/11/01 05:00:21;;;;;;;28.15;12.45;;;;;;;12.19;67.11;100609.28;5020565;28;20411;-69
2022/11/01 05:02:48;;;;;;;37.10;11.05;;;;;;;12.25;68.01;100613.97;5021797;28;20114;-69
2022/11/01 05:05:13;;;;;;;57.47;13.23;;;;;;;12.36;66.07;100619.06;5020868;28;20029;-69
2022/11/01 05:07:38;;;;;;;72.78;16.38;;;;;;;12.38;66.20;100617.91;5021575;28;20036;-69
2022/11/01 05:10:05;;;;;;;52.55;17.48;;;;;;;12.43;65.56;100620.94;5019474;28;20034;-69
2022/11/01 05:12:30;;;;;;;55.80;16.95;;;;;;;12.38;65.38;100625.06;5017974;28;20029;-69
2022/11/01 05:14:55;;;;;;;56.05;16.27;;;;;;;12.32;65.98;100623.00;5020115;28;20046;-69
2022/11/01 05:17:21;;;;;;;31.63;12.95;;;;;;;12.37;65.24;100624.22;5020540;28;20266;-69
2022/11/01 05:19:47;;;;;;;38.53;11.77;;;;;;;12.36;63.58;100627.88;5021196;28;20386;-69
2022/11/01 05:22:12;;;;;;;40.28;12.27;;;;;;;12.41;64.27;100635.38;5019142;28;20038;-69
2022/11/01 05:24:38;;;;;;;147.70;42.08;;;;;;;12.46;64.90;100641.91;5020529;28;20025;-69
2022/11/01 05:27:03;;;;;;;80.43;24.17;;;;;;;12.46;64.67;100630.44;5019381;28;20073;-69
2022/11/01 05:29:29;;;;;;;55.17;16.02;;;;;;;12.50;63.31;100636.31;5020053;28;20093;-69
2022/11/01 05:31:54;;;;;;;43.97;13.93;;;;;;;12.48;63.74;100639.09;5020090;28;20507;-69
2022/11/01 05:34:20;;;;;;;37.38;12.10;;;;;;;12.38;64.55;100623.22;5021387;28;20033;-69
2022/11/01 05:36:45;;;;;;;34.08;11.15;;;;;;;12.56;65.36;100638.34;5020120;28;20076;-69
2022/11/01 05:39:11;;;;;;;29.92;10.13;;;;;;;12.68;66.38;100643.28;5019079;28;20037;-69
2022/11/01 05:41:37;;;;;;;32.35;11.10;;;;;;;12.72;66.20;100638.50;5022434;28;20049;-69
2022/11/01 05:44:02;;;;;;;28.48;11.45;;;;;;;12.81;66.86;100642.88;5020752;28;20052;-69
2022/11/01 05:46:28;;;;;;;39.83;12.45;;;;;;;12.91;67.20;100646.28;5019638;28;20218;-69
2022/11/01 05:48:53;;;;;;;43.42;14.88;;;;;;;12.96;67.01;100651.97;5022019;28;20228;-69
2022/11/01 05:51:19;;;;;;;29.70;9.75;;;;;;;13.04;67.22;100652.03;5023170;28;20038;-69
2022/11/01 05:53:47;;;;;;;28.00;9.25;;;;;;;13.16;66.84;100651.75;5021299;28;20044;-69
2022/11/01 05:56:12;;;;;;;24.17;9.00;;;;;;;13.08;67.50;100656.03;5023787;28;20092;-69
2022/11/01 05:58:37;;;;;;;24.70;8.48;;;;;;;13.18;66.70;100652.47;5004633;28;20034;-69
2022/11/01 06:01:05;;;;;;;23.02;7.93;;;;;;;13.25;67.32;100650.84;5019757;28;20354;-69
2022/11/01 06:03:32;;;;;;;34.40;8.43;;;;;;;13.46;66.75;100658.44;5021144;28;20303;-69
2022/11/01 06:05:57;;;;;;;32.17;8.60;;;;;;;13.61;66.31;100655.06;5021416;28;20042;-69
2022/11/01 06:08:23;;;;;;;25.85;8.15;;;;;;;13.76;66.24;100665.09;5020828;28;20045;-69
2022/11/01 06:10:49;;;;;;;28.25;7.22;;;;;;;14.15;64.78;100663.56;5018508;28;20323;-69
2022/11/01 06:13:15;;;;;;;27.17;8.80;;;;;;;14.45;64.03;100670.16;5019013;28;20025;-69
2022/11/01 06:15:40;;;;;;;24.27;7.80;;;;;;;14.69;63.23;100666.72;5019994;28;20041;-69
2022/11/01 06:18:06;;;;;;;20.48;7.72;;;;;;;15.01;61.99;100668.53;5018126;28;20033;-69
2022/11/01 06:20:31;;;;;;;24.65;7.05;;;;;;;15.17;61.69;100676.50;5021510;28;20077;-69
2022/11/01 06:22:58;;;;;;;22.13;6.32;;;;;;;15.20;61.68;100670.84;4988621;28;20040;-69
2022/11/01 06:25:25;;;;;;;31.17;6.78;;;;;;;15.23;61.56;100677.66;5019328;28;20533;-69
2022/11/01 06:27:50;;;;;;;30.80;8.52;;;;;;;15.39;61.07;100676.81;5020432;28;20655;-69
2022/11/01 06:30:16;;;;;;;33.47;10.15;;;;;;;15.61;59.86;100676.13;5017812;28;20054;-69
2022/11/01 06:32:41;;;;;;;32.20;10.20;;;;;;;15.47;60.99;100674.94;5019429;28;20052;-69
2022/11/01 06:35:07;;;;;;;19.60;8.43;;;;;;;15.47;60.86;100664.28;5019516;28;20227;-69
2022/11/01 06:37:33;;;;;;;23.25;10.55;;;;;;;15.67;60.61;100672.78;5018507;28;20034;-69
2022/11/01 06:39:58;;;;;;;21.80;8.63;;;;;;;15.78;60.69;100672.41;5018740;28;20369;-69
2022/11/01 06:42:23;;;;;;;27.92;10.20;;;;;;;16.06;60.25;100666.59;5016199;28;20030;-69
2022/11/01 06:44:49;;;;;;;27.83;9.13;;;;;;;16.15;59.36;100670.88;5019236;28;20030;-69
2022/11/01 06:47:14;;;;;;;24.40;9.30;;;;;;;16.29;58.83;100667.47;5017945;28;20052;-69
2022/11/01 06:49:40;;;;;;;23.67;9.75;;;;;;;16.35;58.78;100673.94;5017215;28;20131;-69
2022/11/01 06:52:06;;;;;;;29.05;9.40;;;;;;;16.45;58.23;100672.69;5017961;28;20046;-70
2022/11/01 06:54:32;;;;;;;34.15;10.48;;;;;;;16.53;58.29;100669.97;5017541;28;20014;-69
2022/11/01 06:56:57;;;;;;;30.30;10.73;;;;;;;16.54;58.16;100676.16;5001091;28;20045;-69
2022/11/01 06:59:23;;;;;;;20.48;9.40;;;;;;;16.51;58.60;100674.66;5017570;28;20034;-69
2022/11/01 07:01:50;;;;;;;20.40;9.10;;;;;;;16.69;58.10;100673.59;5018837;28;20045;-69
2022/11/01 07:04:16;;;;;;;24.52;8.98;;;;;;;16.83;57.37;100672.81;5017746;28;20710;-69
2022/11/01 07:06:42;;;;;;;26.13;9.05;;;;;;;16.84;57.19;100658.41;5017186;28;20050;-69
2022/11/01 07:09:07;;;;;;;24.90;9.05;;;;;;;17.04;56.88;100672.97;5018804;28;20033;-69
2022/11/01 07:11:33;;;;;;;20.15;8.60;;;;;;;17.12;56.23;100664.84;5016165;28;20084;-69
2022/11/01 07:13:59;;;;;;;29.92;8.70;;;;;;;17.07;56.81;100663.72;5018553;28;20022;-69
2022/11/01 07:16:25;;;;;;;20.80;8.05;;;;;;;17.26;56.50;100667.72;5016740;28;20029;-69
2022/11/01 07:18:50;;;;;;;20.40;7.55;;;;;;;17.36;56.07;100645.03;5018240;28;20033;-69
2022/11/01 07:21:16;;;;;;;16.65;7.07;;;;;;;17.54;55.90;100669.59;5016992;28;20068;-69
2022/11/01 07:23:41;;;;;;;20.30;7.63;;;;;;;17.74;54.92;100663.72;5016804;28;20052;-69
2022/11/01 07:26:07;;;;;;;15.45;6.95;;;;;;;17.82;55.96;100671.66;5017052;28;20339;-69
2022/11/01 07:28:32;;;;;;;22.10;6.65;;;;;;;17.90;55.39;100671.56;5016976;28;20033;-69
2022/11/01 07:30:58;;;;;;;19.92;7.38;;;;;;;17.91;55.18;100659.81;5017642;28;20052;-69
2022/11/01 07:33:23;;;;;;;16.73;7.53;;;;;;;17.93;55.28;100665.00;5015636;28;20331;-69
2022/11/01 07:35:49;;;;;;;15.55;7.50;;;;;;;17.78;56.16;100665.03;5017219;28;20057;-69
2022/11/01 07:38:14;;;;;;;15.50;6.18;;;;;;;18.00;55.18;100668.59;5017088;28;20057;-69
2022/11/01 07:40:40;;;;;;;19.02;7.43;;;;;;;18.08;54.88;100660.44;5017283;28;20030;-69
2022/11/01 07:43:07;;;;;;;14.55;5.72;;;;;;;18.17;54.61;100665.50;5017389;28;20271;-69
2022/11/01 07:45:34;;;;;;;19.25;6.57;;;;;;;18.18;54.32;100659.13;5017444;28;20200;-69
2022/11/01 07:48:05;;;;;;;17.63;6.70;;;;;;;18.40;54.02;100657.28;5017450;28;20096;-69
2022/11/01 07:50:32;;;;;;;23.30;7.85;;;;;;;18.65;53.10;100663.13;5017155;28;20101;-69
2022/11/01 07:53:22;;;;;;;14.30;6.68;;;;;;;18.61;53.82;100652.94;5015875;28;20034;-69
2022/11/01 07:55:48;;;;;;;15.23;5.95;;;;;;;18.70;53.43;100660.69;5015129;28;20046;-69
2022/11/01 07:58:14;;;;;;;14.93;6.13;;;;;;;18.83;53.42;100660.03;5017242;28;20323;-69
2022/11/01 08:00:41;;;;;;;17.67;7.38;;;;;;;18.79;53.69;100656.06;5015748;28;20034;-69
2022/11/01 08:03:12;;;;;;;18.15;6.82;;;;;;;18.75;53.03;100661.00;5016878;28;20339;-69
2022/11/01 08:05:38;;;;;;;18.45;7.68;;;;;;;19.00;52.57;100661.41;5015339;28;20076;-69
2022/11/01 08:08:04;;;;;;;16.40;5.60;;;;;;;18.94;52.19;100648.75;5017335;28;20047;-69
2022/11/01 08:10:31;;;;;;;11.70;5.55;;;;;;;19.00;52.32;100647.16;5015535;28;20329;-69
2022/11/01 08:13:26;;;;;;;15.57;4.85;;;;;;;19.06;52.46;100638.31;5015259;28;20091;-69
2022/11/01 08:15:52;;;;;;;19.40;7.72;;;;;;;19.01;52.03;100641.59;5000211;28;20045;-69
2022/11/01 08:18:21;;;;;;;19.17;5.93;;;;;;;19.18;52.07;100643.97;5017719;28;20041;-69
2022/11/01 08:20:46;;;;;;;11.63;4.30;;;;;;;19.16;51.64;100635.28;5017399;28;20784;-69
2022/11/01 08:23:12;;;;;;;11.50;4.82;;;;;;;19.08;51.35;100631.72;5015297;28;20218;-69
2022/11/01 08:25:38;;;;;;;14.90;7.05;;;;;;;19.34;51.40;100639.13;5017062;28;20065;-69
2022/11/01 08:28:12;;;;;;;22.50;6.30;;;;;;;19.44;51.20;100638.78;5015630;28;20030;-69
2022/11/01 08:30:38;;;;;;;;;;;;;;;19.54;50.79;100633.91;5014490;28;20029;-69
2022/11/01 08:33:04;;;;;;;10.20;4.50;;;;;;;19.59;49.93;100625.25;4989945;28;20103;-69
2022/11/01 08:35:30;;;;;;;12.45;4.70;;;;;;;19.43;49.58;100626.38;4994222;28;20030;-69
2022/11/01 08:37:57;;;;;;;13.02;5.18;;;;;;;19.34;50.86;100622.19;5016853;28;20097;-70
2022/11/01 08:40:24;;;;;;;11.07;4.00;;;;;;;19.34;50.72;100624.88;4999848;28;20315;-71
2022/11/01 08:42:49;;;;;;;13.63;4.03;;;;;;;19.40;50.54;100626.75;5015701;28;20040;-71
2022/11/01 08:45:15;;;;;;;12.32;4.70;;;;;;;19.49;50.21;100620.19;5016920;28;20038;-71
2022/11/01 08:47:41;;;;;;;18.60;5.68;;;;;;;19.69;49.92;100623.84;5015881;28;20037;-71
2022/11/01 08:50:08;;;;;;;13.00;4.10;;;;;;;19.59;49.25;100627.94;5017550;28;20092;-71
2022/11/01 08:52:34;;;;;;;9.05;5.32;;;;;;;19.46;49.99;100626.81;5014451;28;20088;-71
2022/11/01 08:55:00;;;;;;;12.50;4.45;;;;;;;19.61;50.39;100593.63;5015433;28;20030;-71
2022/11/01 08:57:26;;;;;;;11.10;4.10;;;;;;;19.74;49.07;100612.50;5016286;28;20101;-71
2022/11/01 08:59:51;;;;;;;11.98;4.60;;;;;;;19.90;48.64;100611.34;4994353;28;20053;-71
2022/11/01 09:02:17;;;;;;;11.80;4.55;;;;;;;19.95;49.30;100608.88;5016128;28;20034;-71
2022/11/01 09:04:42;;;;;;;11.80;4.05;;;;;;;20.00;48.58;100609.94;5017133;28;20040;-71
2022/11/01 09:07:08;;;;;;;14.15;4.30;;;;;;;20.05;48.20;100612.84;5019617;28;20243;-71
2022/11/01 09:09:33;;;;;;;17.23;4.35;;;;;;;20.25;47.14;100612.06;5019255;28;20441;-71
2022/11/01 09:11:58;;;;;;;18.67;3.83;;;;;;;20.09;48.15;100606.03;4997989;28;20025;-71
2022/11/01 09:14:25;;;;;;;13.80;4.60;;;;;;;20.25;47.15;100607.50;5019032;28;20028;-71
2022/11/01 09:16:51;;;;;;;13.75;4.88;;;;;;;20.08;47.76;100601.69;5020317;28;20033;-70
2022/11/01 09:19:17;;;;;;;12.50;4.00;;;;;;;19.88;47.59;100573.91;5019532;28;20034;-71
2022/11/01 09:21:43;;;;;;;17.85;4.82;;;;;;;20.24;47.88;100605.03;5020408;28;20276;-71
2022/11/01 09:24:10;;;;;;;8.57;3.92;;;;;;;20.47;46.52;100600.13;5019763;28;20037;-71
2022/11/01 09:26:36;;;;;;;11.75;4.25;;;;;;;20.40;46.93;100591.22;5019973;28;20239;-71
2022/11/01 09:29:01;;;;;;;11.18;4.90;;;;;;;20.25;46.78;100596.75;5021131;28;20069;-71
2022/11/01 09:31:27;;;;;;;16.92;4.40;;;;;;;20.40;46.83;100585.84;5023646;28;20096;-71
2022/11/01 09:33:55;;;;;;;13.00;3.78;;;;;;;20.20;46.95;100575.03;5023685;28;20037;-71
2022/11/01 09:36:20;;;;;;;11.80;4.68;;;;;;;20.18;47.29;100579.78;5023670;28;20041;-71
2022/11/01 09:38:46;;;;;;;20.15;5.18;;;;;;;20.24;47.15;100578.13;5023600;28;20034;-71
2022/11/01 09:41:34;;;;;;;14.48;4.55;;;;;;;20.44;47.24;100575.50;5022195;28;20228;-71
2022/11/01 09:44:03;;;;;;;9.80;4.70;;;;;;;20.32;46.92;100573.38;5018822;28;20033;-72
2022/11/01 09:46:42;;;;;;;15.27;4.05;;;;;;;20.37;46.61;100570.91;5018524;28;20060;-71
2022/11/01 09:49:14;;;;;;;16.20;4.07;;;;;;;20.43;46.60;100560.38;5018800;28;20040;-71
2022/11/01 09:51:40;;;;;;;12.30;4.30;;;;;;;20.28;46.72;100569.44;4994920;28;20022;-71
2022/11/01 09:54:07;;;;;;;12.38;4.13;;;;;;;20.29;46.28;100564.91;5017018;28;20041;-71
2022/11/01 09:57:19;;;;;;;10.18;3.92;;;;;;;20.28;48.09;100558.69;5017851;28;20038;-68
2022/11/01 09:59:53;;;;;;;16.98;4.22;;;;;;;20.42;47.61;100554.19;4988849;28;20102;-69
2022/11/01 10:02:33;;;;;;;20.37;7.53;;;;;;;20.42;47.00;100551.50;4997888;28;20254;-68
2022/11/01 10:05:24;;;;;;;18.80;4.55;;;;;;;20.55;47.05;100547.97;5017737;28;20036;-69
2022/11/01 10:08:10;;;;;;;10.55;3.72;;;;;;;20.62;45.99;100546.09;5016718;28;20326;-71
2022/11/01 10:10:55;;;;;;;9.63;3.72;;;;;;;20.93;44.84;100545.47;4997573;28;20033;-71
2022/11/01 10:13:52;;;;;;;13.40;4.32;;;;;;;20.86;46.56;100528.50;5015121;28;20103;-71
2022/11/01 10:16:34;;;;;;;20.70;4.38;;;;;;;20.75;46.48;100534.50;5016338;28;20338;-71
2022/11/01 10:19:04;;;;;;;9.75;3.90;;;;;;;20.73;46.38;100526.63;5016006;28;20027;-69
2022/11/01 10:21:41;;;;;;;13.65;3.75;;;;;;;20.98;45.91;100527.66;5019673;28;20069;-68
2022/11/01 10:24:18;;;;;;;12.02;3.70;;;;;;;20.83;46.73;100523.53;5022627;28;20270;-71
2022/11/01 10:26:47;;;;;;;12.32;3.42;;;;;;;21.03;45.14;100527.84;5022561;28;20030;-71
2022/11/01 10:29:22;;;;;;;10.20;3.17;;;;;;;20.91;45.32;100529.53;5022591;28;20316;-71
2022/11/01 10:31:52;;;;;;;17.35;4.00;;;;;;;20.92;46.43;100523.09;5022933;28;20064;-69
2022/11/01 10:34:25;;;;;;;14.73;4.15;;;;;;;21.06;44.96;100521.22;5022131;28;20316;-69
2022/11/01 10:37:14;;;;;;;13.48;3.70;;;;;;;21.14;45.95;100520.97;5020876;28;20057;-69
2022/11/01 10:39:49;;;;;;;13.23;3.60;;;;;;;21.23;45.21;100506.25;5021747;28;20048;-69
2022/11/01 10:42:15;;;;;;;11.63;3.72;;;;;;;21.20;44.39;100511.22;5022353;28;20053;-69
2022/11/01 10:44:54;;;;;;;16.17;3.45;;;;;;;21.33;43.90;100503.13;5022397;28;20040;-68
2022/11/01 10:47:21;;;;;;;15.20;3.47;;;;;;;21.25;45.54;100493.41;5003711;28;20029;-69
2022/11/01 10:50:09;;;;;;;12.68;3.63;;;;;;;21.35;44.14;100501.03;5021957;28;20049;-69
2022/11/01 10:52:48;;;;;;;9.05;3.15;;;;;;;21.51;43.86;100488.94;5021481;28;20026;-69
2022/11/01 10:55:19;;;;;;;10.23;5.00;;;;;;;21.21;45.79;100485.94;5021978;28;20033;-69
2022/11/01 10:57:51;;;;;;;13.23;3.83;;;;;;;21.12;45.34;100488.03;5022269;28;20039;-69
2022/11/01 11:00:19;;;;;;;17.83;3.85;;;;;;;21.13;45.53;100478.91;5021676;28;20033;-69
2022/11/01 11:02:49;;;;;;;11.63;3.63;;;;;;;21.22;45.55;100474.97;5022036;28;20212;-69
2022/11/01 11:05:15;;;;;;;14.95;5.10;;;;;;;21.07;45.15;100460.94;5018588;28;20030;-69
2022/11/01 11:07:41;;;;;;;9.77;3.72;;;;;;;21.20;44.17;100473.50;4998223;28;20034;-69
2022/11/01 11:10:18;;;;;;;16.17;3.35;;;;;;;21.19;43.86;100458.38;4995385;28;20049;-69
2022/11/01 11:12:46;;;;;;;16.10;4.85;;;;;;;21.13;44.56;100451.16;5017572;28;20251;-69
2022/11/01 11:15:19;;;;;;;8.95;4.00;;;;;;;20.99;45.05;100451.22;5018180;28;20052;-68
2022/11/01 11:17:51;;;;;;;13.70;3.72;;;;;;;21.03;44.70;100444.38;5017357;28;20060;-69
2022/11/01 11:20:23;;;;;;;12.02;3.63;;;;;;;21.00;44.07;100444.78;5016533;28;20054;-69
2022/11/01 11:22:48;;;;;;;8.88;3.15;;;;;;;21.00;43.95;100423.25;5015345;28;20032;-69
2022/11/01 11:25:17;;;;;;;9.02;3.58;;;;;;;20.93;44.43;100437.78;5016943;28;20231;-68
2022/11/01 11:27:49;;;;;;;10.57;3.42;;;;;;;21.10;43.98;100440.81;5016712;28;20038;-68
2022/11/01 11:30:34;;;;;;;12.90;3.60;;;;;;;21.31;43.95;100437.84;5015865;28;20546;-69
2022/11/01 11:33:03;;;;;;;14.52;3.85;;;;;;;21.17;43.67;100430.84;5017213;28;20037;-69